Briefing drone pour Beauzac

Rechercher une autre localisation

Conditions de vol :


Nous sommes le : Jeudi 26 novembre 2020
Il est 15:17 UTC (16:17 LT)

Lever de soleil : 06:30 UTC (07:30 LT)
Coucher de soleil : 16:31 UTC (17:31 LT)

Météo

L'essentiel des conditions de vol

VIGILANCE MÉTÉO FRANCE - Haute-Loire (43)
Pas de vigilances particulieres
METAR de LFMH
LFMH 261500Z AUTO 18011KT CAVOK 13/05 Q1019 NOSIG

Date d'émission: 26/11/2020
Heure d'émission: 15:00 UTC
Vent: 180° pour 11 KT (20 km/h)
Visibilité horizontale: > 10 km
Plafond : Plafond et visibilité OK (CAVOK)
Température: 13 °C
Point de rosée: 5 °C
Humidité: 58%
Pression (QNH): 1019 hPa
Conditions: Pas de changement dans les 2 heures (NOSIG)
TAF de LFMH
LFMH 261100Z 2612/2712 16010KT 9999 FEW040

Conditions prévues :

Heure d'émission : Bulletin éffectué le 26 à 12:00 UTC
Prévision : Valide du 26 a 12:00 UTC au 27 a 12:00 UTC
Vent : 160° pour 10 KT (19 km/h)
Visibilité : > 10 km
Nuages : Peu nuages à 4000ft (1219 m)
WEBCAM POUR BEAUZAC

Réglementation

Voler en sécurité

CARTES AERONAUTIQUE 1/500.000
CARTES VAC (LFMH)
SUP AIP




Chargement des AIP...
NOTAM (BEAUZAC + Terrain à proximité / FIR )




Chargement des NOTAMS...
CONTACT PREFECTURE 43


Avertissement : Les données mises à disposition sont indicatives. Oxygène Drone ne pourra être tenu responsable de dégâts causés aux biens et aux personnes.